Docker River Airport


Codes: YDVR/DKV
Name: Docker River Airport
City:
Country: Australia
Elevation: 589 ft.

Photos at Docker River Airport


   Photos courtesy of SpottingLog. You can add your own sightings and photos by signing up for a free trial today.



No photos found.

Weather at Docker River Airport


Time (UTC)DescriptionTempratureWindCloud coverageVisibilityPressureHumidity
13-Jun-2024 00:00Clear Sky18°C4 mph, N0%10000m1020hPa28%
13-Jun-2024 03:00Clear Sky20°C9 mph, N0%10000m1020hPa25%
13-Jun-2024 06:00Clear Sky23°C7 mph, W0%10000m1017hPa20%
13-Jun-2024 09:00Clear Sky20°C0 mph, W1%10000m1017hPa26%
13-Jun-2024 12:00Few Clouds18°C2 mph, SW16%10000m1019hPa27%
13-Jun-2024 15:00Broken Clouds17°C2 mph, S74%10000m1019hPa30%
13-Jun-2024 18:00Broken Clouds16°C4 mph, S68%10000m1018hPa32%
13-Jun-2024 21:00Few Clouds14°C2 mph, SE24%10000m1018hPa37%
14-Jun-2024 00:00Few Clouds18°C4 mph, SE12%10000m1020hPa31%
14-Jun-2024 03:00Clear Sky23°C4 mph, E0%10000m1018hPa22%
14-Jun-2024 06:00Clear Sky25°C4 mph, E0%10000m1016hPa19%
14-Jun-2024 09:00Clear Sky21°C4 mph, SE4%10000m1018hPa26%
14-Jun-2024 12:00Clear Sky18°C7 mph, SE2%10000m1020hPa37%
14-Jun-2024 15:00Clear Sky16°C7 mph, SE5%10000m1020hPa52%
14-Jun-2024 18:00Clear Sky15°C7 mph, SE5%10000m1020hPa62%
14-Jun-2024 21:00Scattered Clouds13°C7 mph, E40%10000m1021hPa67%
15-Jun-2024 00:00Few Clouds16°C9 mph, E21%10000m1022hPa55%
15-Jun-2024 03:00Clear Sky21°C13 mph, NE4%10000m1021hPa37%
15-Jun-2024 06:00Clear Sky24°C9 mph, NE3%10000m1018hPa29%
15-Jun-2024 09:00Clear Sky20°C7 mph, E4%10000m1019hPa38%
15-Jun-2024 12:00Clear Sky18°C7 mph, E4%10000m1020hPa43%
15-Jun-2024 15:00Clear Sky16°C4 mph, E5%10000m1021hPa46%
15-Jun-2024 18:00Clear Sky15°C4 mph, E4%10000m1020hPa49%
15-Jun-2024 21:00Clear Sky13°C7 mph, E5%10000m1022hPa52%
16-Jun-2024 00:00Clear Sky16°C7 mph, E5%10000m1023hPa44%
16-Jun-2024 03:00Clear Sky22°C9 mph, NE7%10000m1022hPa32%
16-Jun-2024 06:00Few Clouds24°C9 mph, NE11%10000m1019hPa28%
16-Jun-2024 09:00Clear Sky20°C7 mph, E6%10000m1021hPa35%
16-Jun-2024 12:00Clear Sky18°C7 mph, E5%10000m1022hPa41%
16-Jun-2024 15:00Clear Sky16°C7 mph, E2%10000m1022hPa44%
16-Jun-2024 18:00Clear Sky15°C7 mph, E4%10000m1021hPa50%
16-Jun-2024 21:00Clear Sky14°C7 mph, E2%10000m1022hPa54%
17-Jun-2024 00:00Clear Sky17°C7 mph, NE4%10000m1023hPa46%
17-Jun-2024 03:00Clear Sky22°C9 mph, NE7%10000m1021hPa34%
17-Jun-2024 06:00Clear Sky24°C9 mph, N5%10000m1019hPa30%
17-Jun-2024 09:00Few Clouds20°C2 mph, N16%10000m1020hPa40%
17-Jun-2024 12:00Scattered Clouds18°C4 mph, NE49%10000m1021hPa42%
17-Jun-2024 15:00Broken Clouds17°C2 mph, NE54%10000m1020hPa45%
17-Jun-2024 18:00Broken Clouds16°C4 mph, N74%10000m1019hPa47%
17-Jun-2024 21:00Overcast Clouds16°C4 mph, N86%10000m1019hPa50%